Time;durP1;ratioP1;P1;durP2;ratioP2;P2;SDS_P1;SDS_P2;PMS_P1;PMS_P2;Temp;Humidity;BMP_temperature;BMP_pressure;BME280_temperature;BME280_humidity;BME280_pressure;Samples;Min_cycle;Max_cycle;Signal;HPM_P1;HPM_P2
2022/08/06 00:00:46;;;;;;;7.70;2.87;;;20.70;69.20;;;;;;5015191;28;20279;-72
2022/08/06 00:03:12;;;;;;;7.30;3.23;;;20.60;69.70;;;;;;5009758;28;20283;-72
2022/08/06 00:05:37;;;;;;;4.10;2.80;;;20.50;69.10;;;;;;5011601;28;20211;-71
2022/08/06 00:08:03;;;;;;;3.80;2.60;;;20.50;69.50;;;;;;5011755;28;20209;-71
2022/08/06 00:10:29;;;;;;;5.27;3.57;;;20.60;68.50;;;;;;5015852;28;20191;-72
2022/08/06 00:12:54;;;;;;;5.50;3.27;;;20.50;68.90;;;;;;5017621;28;20184;-71
2022/08/06 00:15:20;;;;;;;5.20;3.20;;;20.60;69.10;;;;;;5015460;28;20227;-71
2022/08/06 00:17:46;;;;;;;7.03;2.83;;;20.70;69.20;;;;;;5001338;28;20213;-72
2022/08/06 00:20:15;;;;;;;3.80;2.80;;;20.60;68.80;;;;;;5020557;28;20187;-72
2022/08/06 00:22:41;;;;;;;7.70;2.87;;;20.60;69.40;;;;;;5013971;28;20623;-71
2022/08/06 00:25:08;;;;;;;4.80;2.83;;;20.70;69.10;;;;;;5007782;28;20462;-71
2022/08/06 00:27:34;;;;;;;4.10;3.40;;;20.70;68.80;;;;;;5019893;28;20422;-71
2022/08/06 00:30:00;;;;;;;3.77;3.07;;;20.70;68.50;;;;;;5015884;28;20446;-72
2022/08/06 00:32:26;;;;;;;5.80;3.47;;;20.60;67.90;;;;;;5022398;28;20608;-72
2022/08/06 00:34:51;;;;;;;5.93;3.03;;;20.50;68.00;;;;;;5016798;28;20208;-72
2022/08/06 00:37:17;;;;;;;5.07;3.30;;;20.60;68.00;;;;;;5022345;28;20204;-71
2022/08/06 00:39:43;;;;;;;6.53;3.03;;;20.70;67.70;;;;;;5019857;28;20195;-72
2022/08/06 00:42:09;;;;;;;4.23;2.80;;;20.60;67.30;;;;;;5019775;28;20231;-72
2022/08/06 00:44:35;;;;;;;7.53;3.80;;;20.60;68.50;;;;;;5014285;28;20693;-74
2022/08/06 00:47:00;;;;;;;3.50;2.70;;;20.60;68.30;;;;;;5018155;28;20461;-71
2022/08/06 00:49:26;;;;;;;4.60;2.90;;;20.60;67.30;;;;;;5013437;28;20427;-71
2022/08/06 00:51:52;;;;;;;3.90;2.90;;;20.50;67.30;;;;;;5013305;28;20240;-71
2022/08/06 00:54:19;;;;;;;7.40;2.60;;;20.40;67.20;;;;;;5019603;28;20505;-71
2022/08/06 00:56:44;;;;;;;4.83;2.70;;;20.40;67.60;;;;;;5016489;28;20221;-72
2022/08/06 00:59:10;;;;;;;3.50;2.50;;;20.30;67.60;;;;;;5020053;28;20426;-72
2022/08/06 01:01:35;;;;;;;5.00;3.10;;;20.30;67.60;;;;;;5020266;28;20668;-71
2022/08/06 01:04:02;;;;;;;3.90;3.07;;;20.30;67.50;;;;;;4997479;28;20190;-71
2022/08/06 01:06:27;;;;;;;4.83;2.87;;;20.30;67.50;;;;;;5002015;28;20215;-72
2022/08/06 01:08:53;;;;;;;5.17;2.83;;;20.30;66.60;;;;;;4999915;28;20429;-73
2022/08/06 01:11:19;;;;;;;5.93;2.50;;;20.30;66.30;;;;;;5025867;28;20554;-71
2022/08/06 01:13:45;;;;;;;3.13;2.63;;;20.20;66.10;;;;;;5016053;28;20460;-72
2022/08/06 01:16:24;;;;;;;4.00;2.43;;;20.20;66.30;;;;;;5014385;28;20287;-72
2022/08/06 01:19:42;;;;;;;5.57;2.80;;;20.20;66.60;;;;;;5015215;28;20205;-71
2022/08/06 01:22:14;;;;;;;4.90;3.23;;;20.30;66.30;;;;;;4976980;28;20428;-71
2022/08/06 01:25:02;;;;;;;4.93;2.77;;;20.20;65.30;;;;;;5007085;28;20422;-73
2022/08/06 01:27:43;;;;;;;3.63;2.37;;;20.10;65.60;;;;;;4997719;28;20421;-71
2022/08/06 01:30:16;;;;;;;4.83;2.80;;;20.10;65.60;;;;;;5008347;28;20438;-71
2022/08/06 01:32:52;;;;;;;3.67;2.47;;;20.10;65.30;;;;;;5011681;28;20431;-71
2022/08/06 01:35:26;;;;;;;5.83;3.17;;;20.00;65.30;;;;;;5012591;28;20453;-72
2022/08/06 01:38:06;;;;;;;6.97;2.80;;;20.00;65.30;;;;;;5017455;28;20491;-72
2022/08/06 01:40:34;;;;;;;5.23;2.70;;;20.00;65.30;;;;;;5009537;28;20505;-72
2022/08/06 01:43:03;;;;;;;3.40;2.57;;;20.10;65.30;;;;;;5020132;28;20833;-72
2022/08/06 01:45:32;;;;;;;5.27;2.60;;;20.00;64.80;;;;;;5013171;28;20516;-72
2022/08/06 01:48:03;;;;;;;3.53;3.03;;;19.90;65.70;;;;;;5020652;28;20468;-72
2022/08/06 01:50:36;;;;;;;5.30;3.17;;;19.90;65.60;;;;;;5016932;28;20428;-71
2022/08/06 01:53:05;;;;;;;4.57;2.70;;;20.00;65.80;;;;;;5018249;28;20436;-72
2022/08/06 01:55:38;;;;;;;3.20;2.20;;;19.90;64.80;;;;;;5011623;28;20518;-71
2022/08/06 01:58:05;;;;;;;2.80;2.60;;;19.80;65.70;;;;;;5020085;28;20519;-73
2022/08/06 02:00:33;;;;;;;4.47;2.60;;;19.80;65.30;;;;;;5013035;28;20894;-71
2022/08/06 02:03:00;;;;;;;3.77;2.60;;;19.70;65.60;;;;;;5004466;28;20877;-72
2022/08/06 02:05:27;;;;;;;2.80;2.37;;;19.80;65.70;;;;;;5011461;28;20548;-71
2022/08/06 02:07:56;;;;;;;4.23;2.40;;;19.80;65.80;;;;;;5021298;28;21010;-72
2022/08/06 02:10:23;;;;;;;5.17;2.73;;;19.80;65.70;;;;;;5000226;28;20429;-72
2022/08/06 02:12:49;;;;;;;3.40;2.40;;;19.80;65.70;;;;;;4995803;28;20466;-72
2022/08/06 02:15:26;;;;;;;3.47;2.90;;;19.80;65.40;;;;;;4998724;28;21005;-72
2022/08/06 02:17:56;;;;;;;4.37;2.33;;;19.70;66.00;;;;;;5014032;28;20474;-71
2022/08/06 02:20:31;;;;;;;5.23;3.20;;;19.60;66.10;;;;;;5017229;28;20429;-71
2022/08/06 02:23:01;;;;;;;4.87;3.07;;;19.50;66.10;;;;;;5013872;28;20420;-72
2022/08/06 02:25:27;;;;;;;5.70;2.83;;;19.50;66.70;;;;;;5019359;28;20455;-72
2022/08/06 02:27:56;;;;;;;3.37;2.50;;;19.40;66.70;;;;;;5009822;28;20443;-71
2022/08/06 02:30:22;;;;;;;5.17;2.73;;;19.40;66.60;;;;;;5013194;28;20427;-70
2022/08/06 02:32:49;;;;;;;3.50;2.40;;;19.40;66.70;;;;;;5023414;28;20426;-72
2022/08/06 02:35:14;;;;;;;5.23;2.40;;;19.40;66.70;;;;;;5030476;28;20530;-71
2022/08/06 02:37:55;;;;;;;3.50;2.57;;;19.40;66.70;;;;;;5023229;28;20476;-71
2022/08/06 02:40:37;;;;;;;2.80;2.40;;;19.40;66.90;;;;;;5034326;28;20178;-71
2022/08/06 02:43:18;;;;;;;3.90;2.57;;;19.40;66.60;;;;;;5026404;28;20417;-72
2022/08/06 02:45:54;;;;;;;7.80;2.80;;;19.40;66.90;;;;;;5020035;28;20958;-72
2022/08/06 02:48:42;;;;;;;2.63;2.33;;;19.40;67.00;;;;;;5003933;28;20857;-72
2022/08/06 02:51:16;;;;;;;7.37;3.10;;;19.40;67.20;;;;;;5013353;28;20440;-72
2022/08/06 02:53:57;;;;;;;2.83;2.30;;;19.40;67.00;;;;;;4996927;28;20488;-72
2022/08/06 02:56:25;;;;;;;3.03;2.57;;;19.30;67.30;;;;;;5009726;28;20505;-72
2022/08/06 02:58:53;;;;;;;3.30;2.60;;;19.30;67.30;;;;;;5020694;28;20557;-71
2022/08/06 03:01:23;;;;;;;4.83;2.60;;;19.30;67.50;;;;;;5018318;28;20941;-72
2022/08/06 03:03:52;;;;;;;6.27;3.40;;;19.30;67.20;;;;;;5015770;28;20434;-72
2022/08/06 03:06:19;;;;;;;3.00;2.80;;;19.20;67.90;;;;;;5014153;28;20464;-73
2022/08/06 03:08:47;;;;;;;5.97;2.57;;;19.30;67.70;;;;;;5013506;28;20537;-72
2022/08/06 03:11:14;;;;;;;5.87;2.87;;;19.30;67.70;;;;;;5016697;28;20496;-71
2022/08/06 03:13:42;;;;;;;4.70;2.50;;;19.30;67.70;;;;;;4993861;28;20418;-71
2022/08/06 03:16:09;;;;;;;5.50;3.03;;;19.20;68.00;;;;;;5012544;28;20550;-73
2022/08/06 03:18:36;;;;;;;5.03;2.97;;;19.10;68.50;;;;;;5019715;28;20464;-74
2022/08/06 03:21:02;;;;;;;3.97;3.00;;;18.90;68.90;;;;;;5018064;28;20459;-72
2022/08/06 03:23:30;;;;;;;3.60;2.90;;;18.90;69.10;;;;;;5001623;28;21009;-72
2022/08/06 03:25:57;;;;;;;5.00;2.93;;;19.00;68.90;;;;;;5010472;28;20463;-72
2022/08/06 03:28:25;;;;;;;4.10;3.23;;;19.00;69.20;;;;;;5021131;28;20445;-71
2022/08/06 03:30:51;;;;;;;4.17;3.10;;;19.10;69.10;;;;;;5020346;28;20451;-73
2022/08/06 03:33:19;;;;;;;6.13;3.00;;;19.00;68.90;;;;;;5014048;28;20459;-71
2022/08/06 03:35:45;;;;;;;4.87;2.73;;;19.00;69.20;;;;;;5009634;28;20466;-72
2022/08/06 03:38:12;;;;;;;6.73;3.10;;;19.00;69.10;;;;;;5021204;28;20528;-72
2022/08/06 03:40:43;;;;;;;3.60;3.13;;;19.10;69.10;;;;;;5020270;28;20824;-71
2022/08/06 03:43:09;;;;;;;4.63;2.70;;;19.00;68.90;;;;;;5024249;28;20420;-72
2022/08/06 03:45:39;;;;;;;3.03;2.63;;;19.10;69.10;;;;;;4993349;28;20460;-73
2022/08/06 03:48:08;;;;;;;3.10;2.73;;;18.90;69.40;;;;;;5017604;28;20435;-71
2022/08/06 03:50:40;;;;;;;4.93;2.77;;;18.80;70.10;;;;;;5019583;28;20511;-73
2022/08/06 03:53:12;;;;;;;3.47;2.70;;;18.80;70.20;;;;;;5008173;28;20916;-71
2022/08/06 03:55:39;;;;;;;3.60;2.30;;;18.80;70.40;;;;;;5014310;28;20459;-73
2022/08/06 03:58:08;;;;;;;4.03;3.30;;;18.80;70.40;;;;;;5012816;28;20570;-72
2022/08/06 04:00:40;;;;;;;3.77;2.90;;;18.80;70.20;;;;;;5017985;28;20438;-72
2022/08/06 04:03:09;;;;;;;6.90;3.23;;;18.80;69.90;;;;;;5012856;28;20446;-72
2022/08/06 04:05:36;;;;;;;2.90;2.67;;;18.80;70.20;;;;;;4993536;28;20658;-71
2022/08/06 04:08:06;;;;;;;5.10;3.10;;;18.80;70.40;;;;;;5014181;28;20432;-71
2022/08/06 04:10:48;;;;;;;3.30;2.70;;;18.90;70.20;;;;;;4999029;28;20525;-71
2022/08/06 04:13:17;;;;;;;2.97;2.73;;;18.90;70.10;;;;;;5018571;28;20527;-72
2022/08/06 04:15:43;;;;;;;4.50;2.90;;;18.80;70.20;;;;;;5015954;28;20573;-71
2022/08/06 04:18:17;;;;;;;5.10;3.13;;;18.80;70.70;;;;;;5019165;28;20475;-72
2022/08/06 04:20:46;;;;;;;3.40;3.13;;;18.70;71.10;;;;;;5017630;28;20427;-71
2022/08/06 04:23:12;;;;;;;4.30;3.37;;;18.70;71.00;;;;;;5018655;28;20435;-72
2022/08/06 04:25:49;;;;;;;4.00;2.73;;;18.80;71.00;;;;;;5010006;28;20503;-71
2022/08/06 04:28:16;;;;;;;5.87;3.40;;;18.80;70.70;;;;;;5016440;28;20447;-72
2022/08/06 04:30:42;;;;;;;5.10;2.67;;;18.90;70.40;;;;;;5019203;28;20779;-71
2022/08/06 04:33:12;;;;;;;4.60;2.93;;;18.80;71.00;;;;;;5017215;28;20428;-73
2022/08/06 04:35:40;;;;;;;4.30;3.13;;;18.60;71.10;;;;;;5007301;28;20533;-72
2022/08/06 04:38:06;;;;;;;3.20;2.80;;;18.70;71.30;;;;;;5014360;28;20544;-72
2022/08/06 04:40:32;;;;;;;7.90;2.80;;;18.70;71.30;;;;;;5017527;28;20423;-71
2022/08/06 04:42:58;;;;;;;7.60;3.10;;;18.70;71.40;;;;;;5012789;28;20435;-71
2022/08/06 04:45:24;;;;;;;4.07;2.83;;;18.70;71.30;;;;;;5013624;28;20474;-73
2022/08/06 04:47:51;;;;;;;5.23;3.07;;;18.70;71.30;;;;;;5012114;28;20208;-72
2022/08/06 04:50:17;;;;;;;4.93;2.73;;;18.80;71.40;;;;;;5016406;28;20435;-71
2022/08/06 04:52:42;;;;;;;4.27;2.93;;;18.80;71.30;;;;;;5016404;28;20437;-72
2022/08/06 04:55:08;;;;;;;5.17;3.60;;;18.70;71.40;;;;;;5014046;28;20217;-72
2022/08/06 04:57:34;;;;;;;4.63;3.13;;;18.50;71.80;;;;;;5019391;28;20208;-73
2022/08/06 04:59:59;;;;;;;6.30;3.37;;;18.50;72.00;;;;;;5015890;28;20189;-71
2022/08/06 05:02:25;;;;;;;3.33;2.80;;;18.40;72.40;;;;;;4998169;28;20192;-71
2022/08/06 05:04:55;;;;;;;3.80;2.73;;;18.50;72.30;;;;;;5013493;28;20655;-73
2022/08/06 05:07:29;;;;;;;6.07;3.07;;;18.70;72.00;;;;;;5010813;28;20215;-72
2022/08/06 05:09:56;;;;;;;5.90;3.00;;;18.70;71.80;;;;;;5012620;28;20426;-72
2022/08/06 05:12:32;;;;;;;4.90;3.30;;;18.60;72.00;;;;;;5017756;28;20433;-72
2022/08/06 05:15:17;;;;;;;5.93;3.17;;;18.50;72.10;;;;;;5014737;28;20558;-72
2022/08/06 05:17:48;;;;;;;3.60;3.17;;;18.40;72.90;;;;;;4996782;28;20539;-70
2022/08/06 05:20:18;;;;;;;4.97;3.47;;;18.50;73.00;;;;;;5017958;28;20836;-70
2022/08/06 05:22:48;;;;;;;4.13;2.90;;;18.60;72.60;;;;;;5011655;28;20462;-70
2022/08/06 05:25:14;;;;;;;4.30;3.20;;;18.70;72.60;;;;;;5007508;28;20573;-71
2022/08/06 05:27:41;;;;;;;3.73;2.67;;;18.70;71.80;;;;;;4987798;28;20438;-70
2022/08/06 05:30:07;;;;;;;4.60;3.40;;;18.60;72.40;;;;;;5019876;28;20443;-71
2022/08/06 05:32:47;;;;;;;10.37;4.37;;;18.50;72.90;;;;;;5018170;28;20462;-71
2022/08/06 05:35:14;;;;;;;12.63;7.20;;;18.60;72.90;;;;;;5002726;28;20472;-71
2022/08/06 05:37:40;;;;;;;8.40;5.50;;;18.60;72.70;;;;;;5012269;28;20468;-72
2022/08/06 05:40:07;;;;;;;4.90;3.27;;;18.70;72.40;;;;;;5014683;28;20436;-72
2022/08/06 05:42:33;;;;;;;9.63;3.97;;;18.70;72.10;;;;;;5010156;28;20433;-70
2022/08/06 05:44:59;;;;;;;5.20;3.37;;;18.70;72.30;;;;;;5010661;28;21101;-70
2022/08/06 05:47:28;;;;;;;10.57;3.63;;;18.50;72.70;;;;;;5012689;28;20565;-70
2022/08/06 05:50:02;;;;;;;6.70;3.70;;;18.50;72.70;;;;;;5014876;28;20457;-70
2022/08/06 05:53:00;;;;;;;3.63;3.00;;;18.70;73.20;;;;;;5018907;28;20427;-69
2022/08/06 05:55:45;;;;;;;6.53;3.10;;;18.80;72.30;;;;;;4935522;29;20589;-69
2022/08/06 05:58:14;;;;;;;9.47;5.90;;;18.80;72.30;;;;;;4941626;29;21056;-73
2022/08/06 06:00:41;;;;;;;11.17;5.67;;;18.80;72.60;;;;;;4937140;29;20443;-76
2022/08/06 06:03:09;;;;;;;9.53;5.30;;;18.80;72.70;;;;;;4935948;29;20441;-71
2022/08/06 06:05:36;;;;;;;8.93;5.10;;;18.60;73.20;;;;;;4932926;29;20486;-71
2022/08/06 06:08:02;;;;;;;5.60;3.40;;;18.70;73.20;;;;;;4932363;29;20430;-73
2022/08/06 06:10:28;;;;;;;5.27;3.47;;;18.70;72.90;;;;;;4940875;29;20451;-73
2022/08/06 06:12:56;;;;;;;5.20;3.80;;;18.60;73.20;;;;;;4936140;29;20448;-71
2022/08/06 06:15:22;;;;;;;5.17;3.53;;;18.70;73.20;;;;;;4933930;29;21280;-72
2022/08/06 06:18:00;;;;;;;6.83;3.70;;;18.80;72.90;;;;;;4934831;29;20480;-73
2022/08/06 06:20:51;;;;;;;5.37;3.50;;;19.00;72.90;;;;;;4940998;29;20249;-72
2022/08/06 06:23:48;;;;;;;5.27;3.73;;;19.00;72.40;;;;;;4917929;29;20490;-72
2022/08/06 06:26:46;;;;;;;4.93;3.30;;;18.90;72.30;;;;;;4927668;29;20887;-72
2022/08/06 06:29:27;;;;;;;4.37;3.10;;;19.10;72.10;;;;;;4927445;29;20537;-73
2022/08/06 06:32:00;;;;;;;4.73;3.70;;;19.10;72.00;;;;;;4976131;28;20960;-73
2022/08/06 06:34:46;;;;;;;10.13;4.20;;;19.20;71.70;;;;;;5011252;28;20935;-73
2022/08/06 06:37:38;;;;;;;5.37;3.50;;;19.40;71.30;;;;;;5007772;28;21273;-73
2022/08/06 06:40:22;;;;;;;5.10;3.30;;;19.40;71.30;;;;;;5012863;28;20417;-71
2022/08/06 06:43:02;;;;;;;3.73;3.30;;;19.20;71.70;;;;;;4995292;28;20444;-71
2022/08/06 06:45:35;;;;;;;5.17;4.30;;;19.00;72.00;;;;;;5006419;28;20492;-72
2022/08/06 06:48:13;;;;;;;4.67;3.10;;;19.00;71.80;;;;;;5024111;28;20860;-72
2022/08/06 06:50:45;;;;;;;4.20;3.20;;;19.00;72.00;;;;;;5017236;28;20510;-72
2022/08/06 06:53:12;;;;;;;4.90;3.27;;;18.90;72.10;;;;;;5020958;28;20432;-73
2022/08/06 06:55:46;;;;;;;4.90;3.40;;;18.90;72.40;;;;;;5014521;28;20470;-72
2022/08/06 06:58:14;;;;;;;6.30;3.33;;;18.90;72.70;;;;;;5021469;28;20474;-72
2022/08/06 07:00:42;;;;;;;6.50;4.17;;;18.90;72.70;;;;;;5012798;28;20480;-72
2022/08/06 07:03:09;;;;;;;4.57;3.43;;;19.00;72.40;;;;;;5015320;28;20508;-73
2022/08/06 07:05:37;;;;;;;8.00;3.87;;;19.20;72.00;;;;;;5009189;28;20459;-73
2022/08/06 07:08:04;;;;;;;6.43;3.77;;;19.10;72.10;;;;;;5017661;28;20435;-72
2022/08/06 07:10:32;;;;;;;5.50;3.77;;;18.90;72.60;;;;;;5010434;28;20520;-72
2022/08/06 07:12:59;;;;;;;4.80;3.40;;;18.90;73.00;;;;;;5019334;28;21118;-72
2022/08/06 07:15:26;;;;;;;5.30;3.47;;;18.80;73.20;;;;;;5013834;28;20475;-73
2022/08/06 07:17:53;;;;;;;5.70;3.93;;;18.70;73.30;;;;;;5014037;28;20866;-72
2022/08/06 07:20:25;;;;;;;5.97;3.60;;;18.70;73.60;;;;;;5015207;28;20741;-72
2022/08/06 07:22:52;;;;;;;4.30;3.90;;;18.70;73.60;;;;;;5005644;28;20431;-72
2022/08/06 07:25:18;;;;;;;5.20;4.30;;;18.80;73.60;;;;;;5012700;28;20460;-72
2022/08/06 07:27:48;;;;;;;8.20;4.00;;;18.90;73.30;;;;;;5019812;28;20431;-72
2022/08/06 07:30:16;;;;;;;6.33;4.03;;;18.90;72.90;;;;;;5017123;28;20444;-72
2022/08/06 07:32:46;;;;;;;7.07;3.87;;;18.70;73.60;;;;;;5008997;28;20450;-74
2022/08/06 07:35:13;;;;;;;6.00;3.67;;;18.80;73.70;;;;;;5010702;28;20468;-74
2022/08/06 07:37:48;;;;;;;6.47;4.30;;;18.80;73.20;;;;;;5013879;28;20470;-74
2022/08/06 07:40:44;;;;;;;10.70;6.70;;;18.90;72.70;;;;;;5012720;28;20466;-75
2022/08/06 07:43:22;;;;;;;7.97;5.70;;;18.80;73.20;;;;;;5005182;28;20435;-74
2022/08/06 07:45:50;;;;;;;7.17;4.63;;;18.80;73.00;;;;;;4989943;28;20854;-75
2022/08/06 07:48:21;;;;;;;9.90;5.60;;;18.80;73.00;;;;;;5013637;28;20808;-74
2022/08/06 07:50:51;;;;;;;5.90;5.03;;;18.80;73.20;;;;;;5013215;28;20419;-72
2022/08/06 07:53:19;;;;;;;5.10;3.93;;;18.70;73.30;;;;;;5012592;28;20459;-74
2022/08/06 07:55:45;;;;;;;5.83;4.63;;;18.80;73.20;;;;;;5015095;28;20477;-75
2022/08/06 07:58:12;;;;;;;6.50;4.00;;;19.00;72.70;;;;;;5005761;28;20835;-74
2022/08/06 08:00:39;;;;;;;9.33;5.63;;;19.20;72.30;;;;;;5014182;28;20228;-75
2022/08/06 08:08:36;;;;;;;9.80;4.10;;;19.70;70.40;;;;;;5014047;28;20421;-73
2022/08/06 08:11:03;;;;;;;5.20;4.20;;;19.90;69.70;;;;;;5012583;28;20859;-73
2022/08/06 08:13:30;;;;;;;7.20;4.10;;;20.20;68.80;;;;;;5016915;28;20440;-73
2022/08/06 08:15:56;;;;;;;6.63;4.47;;;20.20;68.30;;;;;;5005965;28;20460;-74
2022/08/06 08:18:29;;;;;;;6.20;3.80;;;20.20;67.70;;;;;;5020956;28;20479;-74
2022/08/06 08:20:56;;;;;;;4.37;3.83;;;20.10;68.20;;;;;;4996140;28;20432;-72
2022/08/06 08:23:23;;;;;;;6.73;4.47;;;20.00;68.60;;;;;;5008528;28;20430;-73
2022/08/06 08:25:49;;;;;;;6.57;4.20;;;20.10;67.70;;;;;;4991150;28;20540;-73
2022/08/06 08:28:14;;;;;;;6.43;3.40;;;20.20;67.90;;;;;;5010496;28;20932;-74
2022/08/06 08:30:40;;;;;;;6.20;4.80;;;20.40;67.50;;;;;;5013139;28;20188;-73
2022/08/06 08:33:06;;;;;;;4.43;3.60;;;20.50;66.40;;;;;;5013814;28;20205;-74
2022/08/06 08:35:31;;;;;;;4.13;3.40;;;20.40;66.70;;;;;;5016014;28;20698;-74
2022/08/06 08:37:57;;;;;;;5.67;3.83;;;20.30;67.00;;;;;;4996744;28;20214;-74
2022/08/06 08:40:24;;;;;;;3.87;3.73;;;20.30;66.90;;;;;;5016484;28;20190;-73
2022/08/06 08:42:53;;;;;;;11.03;4.47;;;20.40;66.90;;;;;;5007159;28;20310;-73
2022/08/06 08:45:20;;;;;;;7.67;4.10;;;20.30;67.20;;;;;;5018748;28;20567;-73
2022/08/06 08:47:50;;;;;;;8.50;3.70;;;20.30;67.00;;;;;;5023126;28;20430;-73
2022/08/06 08:50:21;;;;;;;4.70;3.37;;;20.10;67.00;;;;;;5015449;28;20426;-74
2022/08/06 08:52:50;;;;;;;4.33;3.80;;;20.40;66.40;;;;;;5014702;28;20432;-74
2022/08/06 08:55:21;;;;;;;9.73;4.43;;;20.80;65.60;;;;;;5007060;28;20460;-73
2022/08/06 08:57:48;;;;;;;7.37;3.70;;;21.10;64.40;;;;;;4990144;28;21206;-72
2022/08/06 09:00:13;;;;;;;5.93;4.33;;;21.20;63.50;;;;;;5020391;28;20431;-72
2022/08/06 09:02:39;;;;;;;6.67;3.93;;;21.30;63.10;;;;;;5018871;28;20432;-74
2022/08/06 09:05:06;;;;;;;4.80;3.70;;;21.30;63.20;;;;;;5015799;28;20713;-73
2022/08/06 09:07:32;;;;;;;5.50;3.43;;;21.20;63.90;;;;;;5018923;28;20506;-74
2022/08/06 09:09:59;;;;;;;7.47;4.60;;;21.50;63.70;;;;;;5003068;28;20519;-76
2022/08/06 09:12:25;;;;;;;5.23;3.80;;;21.70;62.80;;;;;;5015505;28;21030;-75
2022/08/06 09:14:51;;;;;;;5.30;3.73;;;21.80;61.70;;;;;;4997501;28;20453;-73
2022/08/06 09:17:18;;;;;;;4.70;3.67;;;21.80;62.00;;;;;;5014903;28;20435;-74
2022/08/06 09:19:44;;;;;;;4.90;3.57;;;21.90;62.20;;;;;;5007573;28;20847;-71
2022/08/06 09:22:10;;;;;;;5.67;3.47;;;22.10;61.70;;;;;;5004228;28;20434;-71
2022/08/06 09:24:37;;;;;;;7.90;4.30;;;22.00;61.20;;;;;;5006183;28;20870;-74
2022/08/06 09:27:08;;;;;;;5.93;3.77;;;22.00;60.10;;;;;;5007734;28;20454;-71
2022/08/06 09:29:34;;;;;;;29.63;15.40;;;21.60;61.90;;;;;;5016702;28;20432;-70
2022/08/06 09:32:03;;;;;;;14.37;8.63;;;21.60;61.20;;;;;;5016810;28;20479;-71
2022/08/06 09:34:39;;;;;;;9.53;5.83;;;21.40;61.60;;;;;;5018501;28;20466;-72
2022/08/06 09:37:05;;;;;;;6.70;4.30;;;21.70;60.30;;;;;;5019166;28;20437;-72
2022/08/06 09:39:44;;;;;;;6.53;4.63;;;21.90;60.00;;;;;;5017493;28;21127;-72
2022/08/06 09:42:10;;;;;;;12.80;5.20;;;22.10;59.50;;;;;;5016797;28;20428;-73
2022/08/06 09:44:35;;;;;;;7.90;4.07;;;22.10;59.60;;;;;;5011106;28;20428;-72
2022/08/06 09:47:01;;;;;;;9.93;4.40;;;21.80;59.70;;;;;;5017259;28;20192;-73
2022/08/06 09:49:27;;;;;;;9.60;4.50;;;21.80;60.60;;;;;;5011921;28;20189;-73
2022/08/06 09:52:14;;;;;;;5.07;3.60;;;22.10;60.30;;;;;;5020023;28;20196;-75
2022/08/06 09:54:40;;;;;;;5.27;3.20;;;22.40;59.60;;;;;;5011900;28;20537;-72
2022/08/06 09:57:06;;;;;;;6.00;3.60;;;22.40;59.50;;;;;;5010067;28;20431;-73
2022/08/06 09:59:45;;;;;;;4.80;3.53;;;22.70;58.70;;;;;;5013676;28;20429;-73
2022/08/06 10:02:17;;;;;;;5.07;4.10;;;23.00;57.00;;;;;;5018361;28;20195;-73
2022/08/06 10:04:43;;;;;;;6.13;3.97;;;23.10;56.10;;;;;;5009505;28;20497;-72
2022/08/06 10:07:09;;;;;;;3.80;3.63;;;22.70;57.60;;;;;;5016624;28;20430;-74
2022/08/06 10:09:37;;;;;;;4.20;3.77;;;22.90;56.90;;;;;;5022735;28;20521;-74
2022/08/06 10:12:17;;;;;;;5.13;3.97;;;23.00;56.40;;;;;;5013105;28;20464;-74
2022/08/06 10:14:43;;;;;;;5.07;4.00;;;23.20;55.00;;;;;;5016202;28;20453;-73
2022/08/06 10:17:13;;;;;;;4.47;3.67;;;23.20;55.00;;;;;;5003821;28;20871;-73
2022/08/06 10:19:42;;;;;;;6.63;4.53;;;22.80;56.40;;;;;;5013348;28;20794;-72
2022/08/06 10:22:11;;;;;;;10.13;3.70;;;22.50;57.20;;;;;;5003178;28;20821;-72
2022/08/06 10:24:41;;;;;;;14.13;4.43;;;22.20;57.70;;;;;;5014517;28;20432;-70
2022/08/06 10:27:09;;;;;;;8.83;4.83;;;22.40;57.00;;;;;;5007011;28;20489;-72
2022/08/06 10:29:57;;;;;;;12.60;4.70;;;22.50;56.90;;;;;;4998013;28;20556;-71
2022/08/06 10:32:29;;;;;;;8.43;4.23;;;22.40;56.20;;;;;;5019564;28;20426;-73
2022/08/06 10:34:57;;;;;;;4.63;3.77;;;22.70;56.00;;;;;;5019422;28;21064;-71
2022/08/06 10:37:23;;;;;;;6.50;4.50;;;22.90;55.70;;;;;;5015647;28;20434;-73
2022/08/06 10:39:55;;;;;;;5.77;3.70;;;22.80;55.80;;;;;;5016398;28;20544;-73
2022/08/06 10:42:21;;;;;;;5.43;3.50;;;22.80;55.40;;;;;;5018943;28;20419;-72
2022/08/06 10:44:49;;;;;;;5.20;4.30;;;22.80;56.20;;;;;;5021149;28;20433;-73
2022/08/06 10:47:15;;;;;;;5.00;4.00;;;22.90;55.40;;;;;;5026928;28;20191;-71
2022/08/06 10:49:42;;;;;;;4.60;3.97;;;23.00;53.80;;;;;;5011987;28;20437;-70
2022/08/06 10:52:10;;;;;;;7.40;4.07;;;22.70;54.60;;;;;;5010223;28;20425;-72
2022/08/06 10:54:36;;;;;;;8.27;3.50;;;22.40;54.40;;;;;;4994982;28;20442;-71
2022/08/06 10:57:02;;;;;;;4.90;4.10;;;22.20;55.00;;;;;;5008427;28;20455;-72
2022/08/06 10:59:27;;;;;;;5.73;3.50;;;22.20;55.60;;;;;;5012501;28;20873;-70
2022/08/06 11:02:12;;;;;;;5.63;4.00;;;22.40;55.30;;;;;;5015162;28;20226;-72
2022/08/06 11:04:55;;;;;;;8.80;4.43;;;23.00;54.40;;;;;;5010339;28;20206;-71
2022/08/06 11:07:33;;;;;;;6.20;4.23;;;22.90;54.60;;;;;;5014921;28;20453;-71
2022/08/06 11:10:23;;;;;;;4.70;3.80;;;22.90;54.60;;;;;;5014403;28;20555;-72
2022/08/06 11:13:07;;;;;;;5.57;3.73;;;23.00;54.20;;;;;;5008267;28;20955;-72
2022/08/06 11:15:36;;;;;;;3.83;3.43;;;23.10;54.10;;;;;;5010177;28;20501;-73
2022/08/06 11:18:04;;;;;;;6.77;5.30;;;23.40;53.70;;;;;;5012973;28;20476;-73
2022/08/06 11:20:36;;;;;;;16.30;10.20;;;23.10;52.80;;;;;;5011335;28;20435;-73
2022/08/06 11:23:22;;;;;;;6.10;4.60;;;22.90;53.20;;;;;;4993216;28;20746;-73
2022/08/06 11:26:00;;;;;;;5.60;4.07;;;23.00;52.60;;;;;;5006320;28;20465;-72
2022/08/06 11:28:29;;;;;;;7.20;3.57;;;23.00;53.20;;;;;;5012027;28;20805;-72
2022/08/06 11:30:57;;;;;;;4.93;3.67;;;23.20;52.50;;;;;;5014597;28;20445;-73
2022/08/06 11:33:32;;;;;;;5.80;3.80;;;22.90;52.90;;;;;;5012007;28;20479;-72
2022/08/06 11:35:58;;;;;;;6.50;3.97;;;22.80;53.80;;;;;;5018316;28;20474;-73
2022/08/06 11:38:42;;;;;;;13.53;4.10;;;23.10;53.30;;;;;;5006769;28;20486;-71
2022/08/06 11:41:10;;;;;;;5.20;4.10;;;23.40;52.40;;;;;;5010960;28;20420;-73
2022/08/06 11:44:07;;;;;;;7.37;4.37;;;23.30;52.60;;;;;;5014347;28;20434;-71
2022/08/06 11:46:40;;;;;;;7.27;3.87;;;23.50;52.40;;;;;;5008850;28;20474;-71
2022/08/06 11:49:16;;;;;;;4.70;4.10;;;23.10;54.00;;;;;;4989628;28;20460;-70
2022/08/06 11:51:56;;;;;;;6.63;3.97;;;22.50;54.90;;;;;;4995561;28;20952;-72
2022/08/06 11:54:33;;;;;;;4.67;3.90;;;22.50;55.20;;;;;;5021432;28;20436;-71
2022/08/06 11:57:01;;;;;;;5.40;4.67;;;22.50;55.60;;;;;;4988905;28;20812;-72
2022/08/06 12:00:05;;;;;;;6.97;3.80;;;22.80;54.40;;;;;;5023866;28;20481;-72
2022/08/06 12:02:53;;;;;;;4.10;3.37;;;23.10;54.10;;;;;;5009865;28;20442;-72
2022/08/06 12:05:21;;;;;;;4.17;3.90;;;23.50;52.20;;;;;;5004323;28;20463;-71
2022/08/06 12:08:21;;;;;;;6.00;4.87;;;23.20;53.30;;;;;;5004032;28;20447;-72
2022/08/06 12:11:41;;;;;;;5.23;4.23;;;23.50;52.90;;;;;;5018521;28;20438;-73
2022/08/06 12:14:44;;;;;;;4.33;3.43;;;24.10;51.40;;;;;;4920485;29;20977;-72
2022/08/06 12:17:11;;;;;;;3.80;3.13;;;24.80;49.10;;;;;;4910642;29;20541;-72
2022/08/06 12:19:43;;;;;;;5.00;3.63;;;25.60;47.40;;;;;;4918698;29;20466;-71
2022/08/06 12:22:09;;;;;;;5.53;3.90;;;26.10;45.10;;;;;;4905731;29;20436;-72
2022/08/06 12:24:35;;;;;;;5.13;3.57;;;25.40;46.60;;;;;;4915467;29;20436;-72
2022/08/06 12:27:05;;;;;;;5.20;3.77;;;25.20;47.30;;;;;;4904967;29;20494;-73
2022/08/06 12:29:30;;;;;;;7.53;4.00;;;24.60;49.00;;;;;;4914494;29;20466;-71
2022/08/06 12:31:57;;;;;;;5.80;3.60;;;24.60;48.60;;;;;;4915283;29;20534;-72
2022/08/06 12:34:27;;;;;;;4.30;3.80;;;25.30;47.50;;;;;;4900371;29;21051;-72
2022/08/06 12:36:53;;;;;;;5.37;3.53;;;25.40;46.70;;;;;;4907413;29;20237;-73
2022/08/06 12:39:18;;;;;;;4.70;3.37;;;24.40;49.40;;;;;;4918667;29;20484;-72
2022/08/06 12:41:44;;;;;;;7.30;4.03;;;23.70;51.30;;;;;;4906817;29;20528;-70
2022/08/06 12:44:10;;;;;;;4.27;3.60;;;23.50;51.70;;;;;;4916223;29;20235;-72
2022/08/06 12:46:36;;;;;;;3.90;3.80;;;23.40;52.20;;;;;;4914502;29;20255;-73
2022/08/06 12:49:02;;;;;;;5.90;3.90;;;23.60;51.70;;;;;;5005258;28;20477;-73
2022/08/06 12:51:28;;;;;;;5.20;3.90;;;24.30;50.70;;;;;;5023460;28;20196;-72
2022/08/06 12:53:59;;;;;;;5.10;4.00;;;24.60;49.70;;;;;;5018077;28;20736;-72
2022/08/06 12:56:26;;;;;;;3.67;3.27;;;24.30;49.70;;;;;;5011232;28;20237;-71
2022/08/06 12:58:53;;;;;;;4.03;3.63;;;24.20;50.20;;;;;;5022558;28;20492;-72
2022/08/06 13:01:23;;;;;;;3.73;3.37;;;24.80;49.30;;;;;;5015363;28;20416;-72
2022/08/06 13:03:53;;;;;;;4.50;3.77;;;25.70;47.00;;;;;;5020367;28;21068;-72
2022/08/06 13:06:24;;;;;;;4.33;3.50;;;26.20;45.30;;;;;;5002113;28;20460;-71
2022/08/06 13:08:52;;;;;;;3.97;3.67;;;26.20;44.60;;;;;;5020392;28;20421;-71